createdAt,value
2019-03-11T00:02:02.523Z,4.40
2019-03-11T00:04:32.523Z,3.83
2019-03-11T00:07:02.556Z,6.12
2019-03-11T00:09:32.545Z,4.25
2019-03-11T00:12:02.533Z,3.77
2019-03-11T00:14:32.469Z,6.05
2019-03-11T00:17:02.469Z,4.87
2019-03-11T00:19:32.681Z,5.25
2019-03-11T00:22:02.678Z,7.12
2019-03-11T00:24:32.716Z,4.60
2019-03-11T00:27:02.912Z,8.03
2019-03-11T00:29:33.068Z,4.53
2019-03-11T00:32:03.216Z,3.95
2019-03-11T00:34:33.319Z,4.67
2019-03-11T00:37:03.279Z,4.97
2019-03-11T00:39:33.267Z,2.75
2019-03-11T00:42:03.381Z,3.45
2019-03-11T00:44:33.404Z,2.87
2019-03-11T00:47:03.350Z,2.10
2019-03-11T00:49:33.357Z,3.02
2019-03-11T00:52:03.349Z,10.13
2019-03-11T00:54:33.636Z,3.47
2019-03-11T00:57:03.708Z,2.83
2019-03-11T00:59:33.776Z,6.87
2019-03-11T01:02:04.014Z,3.12
2019-03-11T01:04:34.865Z,7.58
2019-03-11T01:07:05.806Z,3.02
2019-03-11T01:09:35.817Z,3.60
2019-03-11T01:12:05.719Z,3.20
2019-03-11T01:14:35.994Z,3.40
2019-03-11T01:17:06.043Z,2.80
2019-03-11T01:19:36.028Z,3.47
2019-03-11T01:22:06.114Z,4.40
2019-03-11T01:24:37.287Z,1.62
2019-03-11T01:27:07.310Z,62.73
2019-03-11T01:29:37.242Z,14.63
2019-03-11T01:32:07.663Z,1.47
2019-03-11T01:34:37.601Z,0.82
2019-03-11T01:37:07.625Z,0.53
2019-03-11T01:39:37.786Z,0.68
2019-03-11T01:42:07.783Z,6.42
2019-03-11T01:44:37.689Z,1.12
2019-03-11T01:47:07.794Z,1.72
2019-03-11T01:49:37.734Z,0.72
2019-03-11T01:52:07.733Z,8.03
2019-03-11T01:54:37.769Z,1.27
2019-03-11T01:57:07.987Z,6.95
2019-03-11T01:59:37.897Z,5.15
2019-03-11T02:02:07.957Z,2.22
2019-03-11T02:04:38.735Z,3.85
2019-03-11T02:07:08.645Z,7.85
2019-03-11T02:09:38.564Z,2.22
2019-03-11T02:12:08.634Z,2.27
2019-03-11T02:14:38.599Z,2.87
2019-03-11T02:17:08.521Z,2.33
2019-03-11T02:19:38.503Z,1.57
2019-03-11T02:22:08.582Z,0.70
2019-03-11T02:24:38.500Z,1.72
2019-03-11T02:27:08.513Z,1.70
2019-03-11T02:29:38.582Z,1.72
2019-03-11T02:32:08.977Z,1.55
2019-03-11T02:34:39.322Z,2.77
2019-03-11T02:37:09.246Z,2.47
2019-03-11T02:39:39.540Z,2.27
2019-03-11T02:42:09.522Z,4.87
2019-03-11T02:44:39.577Z,1.07
2019-03-11T02:47:09.661Z,1.75
2019-03-11T02:49:43.713Z,0.57
2019-03-11T02:52:12.287Z,3.85
2019-03-11T02:54:42.290Z,1.80
2019-03-11T02:57:12.325Z,1.02
2019-03-11T02:59:42.451Z,1.20
2019-03-11T03:02:14.095Z,1.12
2019-03-11T03:04:49.481Z,2.00
2019-03-11T03:07:19.495Z,2.15
2019-03-11T03:09:49.557Z,1.87
2019-03-11T03:12:19.571Z,1.17
2019-03-11T03:14:50.703Z,0.88
2019-03-11T03:17:20.683Z,1.62
2019-03-11T03:19:50.668Z,2.05
2019-03-11T03:22:20.719Z,1.80
2019-03-11T03:24:50.726Z,2.92
2019-03-11T03:27:20.923Z,1.75
2019-03-11T03:29:50.864Z,1.98
2019-03-11T03:32:21.053Z,2.70
2019-03-11T03:34:51.136Z,2.85
2019-03-11T03:37:21.213Z,2.17
2019-03-11T03:39:51.216Z,2.55
2019-03-11T03:42:21.248Z,3.77
2019-03-11T03:45:28.462Z,7.10
2019-03-11T03:47:59.237Z,3.15
2019-03-11T03:50:34.676Z,3.62
2019-03-11T03:53:04.844Z,3.92
2019-03-11T03:55:34.869Z,3.25
2019-03-11T03:58:04.857Z,3.40
2019-03-11T04:00:35.037Z,3.02
2019-03-11T04:03:06.306Z,3.80
2019-03-11T04:05:37.146Z,3.08
2019-03-11T04:08:07.145Z,3.87
2019-03-11T04:10:37.129Z,4.42
2019-03-11T04:13:07.389Z,4.20
2019-03-11T04:15:37.515Z,6.70
2019-03-11T04:18:09.515Z,5.33
2019-03-11T04:20:39.552Z,5.20
2019-03-11T04:23:09.543Z,4.55
2019-03-11T04:25:39.548Z,4.60
2019-03-11T04:28:09.550Z,5.70
2019-03-11T04:30:39.555Z,6.45
2019-03-11T04:33:09.514Z,3.77
2019-03-11T04:35:39.477Z,5.45
2019-03-11T04:38:09.427Z,3.90
2019-03-11T04:40:39.345Z,6.25
2019-03-11T04:43:09.340Z,8.93
2019-03-11T04:45:39.442Z,9.65
2019-03-11T04:48:09.375Z,7.65
2019-03-11T04:50:39.765Z,7.55
2019-03-11T04:53:09.894Z,9.20
2019-03-11T04:55:39.818Z,8.25
2019-03-11T04:58:09.842Z,7.50
2019-03-11T05:00:39.846Z,8.80
2019-03-11T05:03:09.889Z,7.97
2019-03-11T05:05:39.791Z,7.03
2019-03-11T05:08:10.677Z,7.95
2019-03-11T05:10:40.630Z,6.00
2019-03-11T05:13:10.549Z,7.05
2019-03-11T05:15:40.586Z,6.08
2019-03-11T05:18:10.532Z,4.65
2019-03-11T05:20:40.516Z,3.72
2019-03-11T05:23:10.567Z,5.10
2019-03-11T05:25:40.568Z,4.87
2019-03-11T05:28:10.480Z,5.53
2019-03-11T05:30:42.116Z,5.00
2019-03-11T05:33:12.342Z,5.62
2019-03-11T05:35:42.275Z,6.17
2019-03-11T05:38:12.567Z,8.00
2019-03-11T05:40:42.494Z,5.33
2019-03-11T05:43:12.543Z,7.37
2019-03-11T05:45:42.476Z,8.33
2019-03-11T05:48:12.389Z,6.10
2019-03-11T05:50:42.498Z,6.40
2019-03-11T05:53:12.530Z,8.48
2019-03-11T05:55:42.571Z,5.90
2019-03-11T05:58:12.254Z,9.43
2019-03-11T06:00:42.087Z,8.68
2019-03-11T06:03:12.520Z,7.95
2019-03-11T06:05:42.643Z,7.58
2019-03-11T06:08:22.358Z,9.78
2019-03-11T06:10:53.244Z,7.60
2019-03-11T06:13:35.279Z,11.12
2019-03-11T06:15:55.835Z,5.87
2019-03-11T06:18:33.197Z,4.67
2019-03-11T06:21:21.615Z,7.17
2019-03-11T06:23:51.714Z,8.20
2019-03-11T06:26:21.678Z,6.97
2019-03-11T06:28:51.772Z,6.87
2019-03-11T06:31:21.758Z,9.33
2019-03-11T06:33:51.719Z,6.97
2019-03-11T06:36:21.694Z,7.10
2019-03-11T06:38:51.751Z,6.53
2019-03-11T06:41:21.692Z,5.87
2019-03-11T06:43:51.687Z,6.55
2019-03-11T06:46:21.584Z,6.90
2019-03-11T06:48:51.558Z,6.25
2019-03-11T06:51:21.470Z,7.20
2019-03-11T06:53:51.453Z,7.78
2019-03-11T06:56:21.365Z,4.95
2019-03-11T06:58:51.558Z,6.42
2019-03-11T07:01:21.632Z,4.70
2019-03-11T07:03:51.685Z,7.42
2019-03-11T07:06:21.626Z,4.95
2019-03-11T07:08:52.435Z,7.00
2019-03-11T07:11:22.509Z,6.40
2019-03-11T07:13:52.430Z,3.87
2019-03-11T07:16:23.418Z,4.67
2019-03-11T07:18:53.342Z,5.60
2019-03-11T07:21:23.286Z,8.60
2019-03-11T07:23:53.303Z,6.65
2019-03-11T07:26:23.413Z,7.80
2019-03-11T07:28:53.355Z,8.70
2019-03-11T07:31:23.270Z,8.30
2019-03-11T07:33:53.248Z,5.45
2019-03-11T07:36:23.299Z,7.65
2019-03-11T07:38:53.246Z,8.05
2019-03-11T07:41:23.199Z,7.42
2019-03-11T07:43:53.233Z,7.78
2019-03-11T07:46:23.234Z,10.58
2019-03-11T07:48:53.230Z,10.45
2019-03-11T07:51:23.226Z,7.35
2019-03-11T07:53:53.241Z,8.80
2019-03-11T07:56:24.224Z,7.53
2019-03-11T07:58:54.271Z,7.60
2019-03-11T08:01:24.292Z,7.83
2019-03-11T08:03:54.237Z,5.95
2019-03-11T08:06:24.247Z,4.92
2019-03-11T08:08:55.056Z,6.60
2019-03-11T08:11:25.045Z,8.08
2019-03-11T08:13:54.959Z,5.28
2019-03-11T08:16:24.935Z,6.87
2019-03-11T08:18:54.890Z,6.05
2019-03-11T08:21:24.874Z,3.52
2019-03-11T08:23:54.911Z,3.90
2019-03-11T08:26:24.849Z,5.62
2019-03-11T08:28:54.990Z,6.08
2019-03-11T08:31:25.048Z,7.05
2019-03-11T08:33:54.971Z,3.80
2019-03-11T08:36:25.235Z,2.12
2019-03-11T08:38:55.149Z,4.42
2019-03-11T08:41:25.124Z,3.62
2019-03-11T08:43:55.083Z,7.15
2019-03-11T08:46:24.996Z,7.90
2019-03-11T08:48:56.042Z,5.80
2019-03-11T08:51:27.012Z,8.50
2019-03-11T08:53:56.966Z,8.98
2019-03-11T08:56:26.907Z,8.18
2019-03-11T08:58:56.885Z,11.83
2019-03-11T09:01:26.874Z,8.15
2019-03-11T09:03:56.816Z,9.45
2019-03-11T09:06:26.774Z,8.83
2019-03-11T09:08:56.427Z,9.45
2019-03-11T09:11:25.954Z,15.88
2019-03-11T09:13:55.896Z,9.55
2019-03-11T09:16:25.814Z,9.35
2019-03-11T09:18:55.761Z,11.22
2019-03-11T09:21:25.657Z,13.03
2019-03-11T09:23:55.651Z,15.63
2019-03-11T09:26:25.599Z,10.15
2019-03-11T09:28:55.537Z,11.48
2019-03-11T09:31:25.642Z,13.95
2019-03-11T09:33:55.649Z,12.63
2019-03-11T09:36:25.441Z,9.40
2019-03-11T09:38:55.406Z,7.58
2019-03-11T09:41:25.050Z,8.90
2019-03-11T09:43:54.903Z,8.95
2019-03-11T09:46:25.954Z,9.18
2019-03-11T09:48:55.989Z,8.93
2019-03-11T09:51:25.915Z,8.83
2019-03-11T09:53:55.881Z,11.48
2019-03-11T09:56:25.864Z,7.33
2019-03-11T09:58:55.847Z,13.65
2019-03-11T10:01:27.206Z,16.42
2019-03-11T10:03:57.214Z,7.08
2019-03-11T10:06:27.210Z,7.75
2019-03-11T10:08:57.292Z,7.47
2019-03-11T10:11:28.118Z,9.73
2019-03-11T10:13:58.211Z,18.05
2019-03-11T10:16:28.224Z,22.25
2019-03-11T10:18:58.266Z,5.53
2019-03-11T10:21:28.276Z,20.80
2019-03-11T10:23:59.338Z,8.60
2019-03-11T10:26:29.724Z,16.20
2019-03-11T10:28:59.740Z,39.38
2019-03-11T10:31:29.670Z,10.28
2019-03-11T10:33:59.611Z,5.00
2019-03-11T10:36:29.607Z,7.50
2019-03-11T10:38:59.551Z,4.95
2019-03-11T10:41:29.773Z,6.65
2019-03-11T10:43:59.891Z,6.53
2019-03-11T10:46:30.036Z,6.62
2019-03-11T10:49:00.010Z,6.37
2019-03-11T10:51:29.931Z,7.83
2019-03-11T10:53:59.966Z,2.05
2019-03-11T10:56:29.892Z,5.80
2019-03-11T10:58:59.815Z,7.10
2019-03-11T11:01:29.770Z,5.85
2019-03-11T11:03:59.788Z,9.08
2019-03-11T11:06:29.818Z,14.87
2019-03-11T11:08:59.784Z,8.48
2019-03-11T11:11:30.615Z,6.65
2019-03-11T11:14:00.766Z,16.95
2019-03-11T11:16:30.877Z,7.17
2019-03-11T11:19:00.932Z,4.00
2019-03-11T11:21:30.839Z,3.20
2019-03-11T11:24:00.775Z,3.92
2019-03-11T11:26:30.810Z,4.62
2019-03-11T11:29:00.857Z,5.70
2019-03-11T11:31:30.912Z,4.75
2019-03-11T11:34:00.941Z,3.65
2019-03-11T11:36:31.305Z,4.50
2019-03-11T11:39:01.276Z,2.70
2019-03-11T11:41:32.866Z,5.28
2019-03-11T11:44:03.055Z,5.08
2019-03-11T11:46:33.065Z,3.22
2019-03-11T11:49:03.192Z,6.65
2019-03-11T11:51:33.164Z,5.22
2019-03-11T11:54:03.177Z,3.67
2019-03-11T11:56:33.099Z,3.40
2019-03-11T11:59:03.314Z,3.10
2019-03-11T12:01:33.384Z,3.37
2019-03-11T12:04:03.317Z,5.92
2019-03-11T12:06:33.263Z,3.00
2019-03-11T12:09:04.743Z,12.73
2019-03-11T12:11:36.828Z,20.77
2019-03-11T12:14:06.759Z,14.93
2019-03-11T12:16:36.687Z,8.78
2019-03-11T12:19:06.691Z,6.35
2019-03-11T12:21:36.719Z,8.95
2019-03-11T12:24:06.705Z,9.40
2019-03-11T12:26:36.599Z,6.17
2019-03-11T12:29:06.562Z,5.10
2019-03-11T12:31:36.925Z,8.23
2019-03-11T12:34:06.900Z,4.35
2019-03-11T12:36:36.899Z,6.37
2019-03-11T12:39:07.126Z,5.42
2019-03-11T12:41:37.388Z,5.42
2019-03-11T12:44:08.444Z,8.08
2019-03-11T12:46:38.541Z,3.50
2019-03-11T12:49:08.633Z,3.55
2019-03-11T12:51:48.945Z,5.28
2019-03-11T12:54:10.202Z,7.22
2019-03-11T12:56:40.108Z,3.70
2019-03-11T12:59:10.350Z,4.05
2019-03-11T13:01:40.340Z,5.47
2019-03-11T13:04:10.376Z,3.20
2019-03-11T13:06:40.393Z,4.55
2019-03-11T13:09:10.366Z,3.95
2019-03-11T13:11:41.407Z,9.35
2019-03-11T13:14:11.357Z,6.53
2019-03-11T13:16:41.278Z,5.92
2019-03-11T13:19:13.559Z,5.28
2019-03-11T13:21:42.982Z,6.10
2019-03-11T13:24:12.956Z,6.05
2019-03-11T13:26:42.878Z,4.05
2019-03-11T13:29:13.137Z,4.92
2019-03-11T13:31:43.081Z,2.85
2019-03-11T13:34:13.060Z,4.60
2019-03-11T13:36:43.071Z,5.95
2019-03-11T13:39:13.075Z,5.72
2019-03-11T13:41:43.077Z,5.85
2019-03-11T13:44:12.904Z,5.30
2019-03-11T13:46:42.725Z,4.35
2019-03-11T13:49:12.816Z,5.78
2019-03-11T13:51:42.831Z,5.25
2019-03-11T13:54:13.361Z,7.53
2019-03-11T13:56:43.449Z,6.58
2019-03-11T13:59:13.637Z,4.03
2019-03-11T14:01:43.695Z,4.47
2019-03-11T14:04:13.672Z,4.40
2019-03-11T14:06:43.618Z,6.10
2019-03-11T14:09:14.152Z,5.10
2019-03-11T14:11:44.883Z,4.08
2019-03-11T14:14:14.457Z,6.65
2019-03-11T14:16:44.405Z,6.28
2019-03-11T14:19:17.598Z,6.00
2019-03-11T14:21:47.579Z,5.22
2019-03-11T14:24:17.560Z,5.40
2019-03-11T14:26:47.634Z,4.20
2019-03-11T14:29:18.208Z,6.15
2019-03-11T14:31:47.817Z,10.43
2019-03-11T14:34:18.174Z,5.40
2019-03-11T14:36:48.239Z,9.13
2019-03-11T14:39:18.297Z,7.45
2019-03-11T14:41:48.286Z,5.78
2019-03-11T14:44:18.455Z,7.03
2019-03-11T14:46:48.368Z,6.97
2019-03-11T14:49:18.342Z,8.10
2019-03-11T14:51:48.336Z,7.67
2019-03-11T14:54:18.251Z,9.48
2019-03-11T14:56:48.343Z,9.78
2019-03-11T14:59:18.370Z,12.50
2019-03-11T15:01:48.582Z,6.55
2019-03-11T15:04:18.554Z,10.05
2019-03-11T15:06:48.739Z,10.05
2019-03-11T15:09:18.976Z,7.03
2019-03-11T15:11:49.426Z,7.62
2019-03-11T15:14:19.349Z,8.03
2019-03-11T15:16:49.414Z,8.00
2019-03-11T15:19:21.449Z,8.70
2019-03-11T15:21:51.060Z,7.95
2019-03-11T15:24:20.795Z,8.60
2019-03-11T15:26:50.729Z,7.47
2019-03-11T15:29:20.848Z,8.65
2019-03-11T15:31:51.071Z,7.70
2019-03-11T15:34:21.338Z,10.05
2019-03-11T15:36:51.289Z,8.63
2019-03-11T15:39:21.331Z,7.80
2019-03-11T15:41:51.418Z,11.95
2019-03-11T15:44:23.068Z,12.13
2019-03-11T15:46:53.091Z,8.18
2019-03-11T15:49:23.115Z,13.95
2019-03-11T15:51:54.015Z,11.50
2019-03-11T15:54:23.970Z,6.53
2019-03-11T15:56:54.055Z,7.08
2019-03-11T15:59:23.959Z,6.70
2019-03-11T16:01:53.967Z,7.95
2019-03-11T16:04:24.045Z,10.45
2019-03-11T16:06:54.055Z,6.75
2019-03-11T16:09:24.113Z,5.83
2019-03-11T16:11:54.899Z,5.70
2019-03-11T16:14:26.444Z,7.53
2019-03-11T16:16:56.406Z,8.88
2019-03-11T16:19:26.565Z,7.42
2019-03-11T16:21:56.480Z,6.50
2019-03-11T16:24:29.659Z,6.85
2019-03-11T16:27:00.636Z,7.55
2019-03-11T16:29:31.106Z,8.18
2019-03-11T16:32:00.994Z,6.00
2019-03-11T16:34:31.066Z,5.72
2019-03-11T16:37:00.984Z,4.97
2019-03-11T16:39:30.939Z,8.53
2019-03-11T16:42:00.979Z,10.18
2019-03-11T16:44:31.153Z,8.95
2019-03-11T16:47:01.573Z,13.22
2019-03-11T16:49:31.521Z,10.58
2019-03-11T16:52:01.546Z,11.10
2019-03-11T16:54:31.538Z,13.45
2019-03-11T16:57:01.676Z,15.53
2019-03-11T16:59:31.618Z,12.55
2019-03-11T17:02:01.608Z,12.35
2019-03-11T17:04:31.067Z,12.40
2019-03-11T17:07:00.511Z,10.17
2019-03-11T17:09:30.050Z,31.80
2019-03-11T17:12:00.283Z,11.67
2019-03-11T17:14:31.295Z,14.23
2019-03-11T17:17:01.301Z,11.60
2019-03-11T17:19:30.733Z,12.67
2019-03-11T17:22:00.157Z,9.63
2019-03-11T17:24:30.270Z,8.33
2019-03-11T17:26:59.639Z,9.67
2019-03-11T17:29:29.075Z,8.47
2019-03-11T17:31:59.012Z,9.68
2019-03-11T17:34:29.050Z,10.18
2019-03-11T17:36:58.994Z,14.13
2019-03-11T17:39:28.418Z,12.17
2019-03-11T17:41:58.666Z,12.43
2019-03-11T17:44:29.669Z,15.38
2019-03-11T17:46:59.724Z,13.58
2019-03-11T17:49:29.762Z,13.40
2019-03-11T17:51:59.697Z,12.45
2019-03-11T17:54:29.649Z,14.20
2019-03-11T17:56:59.704Z,11.38
2019-03-11T17:59:29.746Z,12.63
2019-03-11T18:01:59.201Z,12.90
2019-03-11T18:04:29.821Z,14.20
2019-03-11T18:07:00.035Z,14.25
2019-03-11T18:09:30.012Z,16.37
2019-03-11T18:12:00.023Z,16.67
2019-03-11T18:14:29.988Z,16.35
2019-03-11T18:17:00.016Z,16.10
2019-03-11T18:19:29.977Z,17.87
2019-03-11T18:22:00.838Z,20.82
2019-03-11T18:24:30.954Z,18.05
2019-03-11T18:27:00.945Z,22.70
2019-03-11T18:29:31.016Z,18.62
2019-03-11T18:32:02.131Z,22.60
2019-03-11T18:34:32.038Z,21.48
2019-03-11T18:37:01.970Z,23.02
2019-03-11T18:39:31.409Z,25.10
2019-03-11T18:42:01.426Z,22.87
2019-03-11T18:44:31.408Z,21.93
2019-03-11T18:47:01.414Z,23.77
2019-03-11T18:49:31.442Z,27.37
2019-03-11T18:52:01.471Z,26.85
2019-03-11T18:54:31.424Z,37.00
2019-03-11T18:57:01.474Z,35.50
2019-03-11T18:59:31.058Z,36.10
2019-03-11T19:02:02.097Z,36.23
2019-03-11T19:04:32.175Z,39.67
2019-03-11T19:07:02.180Z,38.20
2019-03-11T19:09:32.128Z,35.20
2019-03-11T19:12:01.538Z,25.87
2019-03-11T19:14:30.983Z,29.73
2019-03-11T19:17:01.049Z,33.85
2019-03-11T19:19:31.161Z,31.65
2019-03-11T19:22:01.567Z,32.20
2019-03-11T19:24:32.066Z,35.13
2019-03-11T19:27:01.578Z,34.93
2019-03-11T19:29:31.586Z,38.05
2019-03-11T19:32:01.997Z,38.23
2019-03-11T19:34:31.454Z,39.77
2019-03-11T19:37:01.537Z,36.70
2019-03-11T19:39:30.905Z,42.97
2019-03-11T19:42:00.875Z,43.08
2019-03-11T19:44:30.978Z,49.08
2019-03-11T19:47:02.238Z,44.63
2019-03-11T19:49:32.259Z,45.28
2019-03-11T19:52:02.346Z,46.13
2019-03-11T19:54:32.398Z,49.10
2019-03-11T19:57:02.394Z,46.60
2019-03-11T19:59:32.617Z,45.98
2019-03-11T20:02:02.666Z,48.85
2019-03-11T20:04:33.987Z,46.85
2019-03-11T20:07:03.666Z,47.40
2019-03-11T20:09:34.358Z,53.43
2019-03-11T20:12:04.113Z,44.90
2019-03-11T20:14:33.681Z,47.70
2019-03-11T20:17:03.414Z,50.30
2019-03-11T20:19:33.663Z,43.20
2019-03-11T20:22:04.615Z,50.08
2019-03-11T20:24:34.213Z,39.23
2019-03-11T20:27:04.333Z,52.08
2019-03-11T20:29:34.031Z,45.27
2019-03-11T20:32:04.939Z,43.98
2019-03-11T20:34:34.405Z,50.63
2019-03-11T20:37:03.946Z,47.13
2019-03-11T20:39:34.088Z,47.05
2019-03-11T20:42:04.280Z,49.03
2019-03-11T20:44:34.366Z,52.05
2019-03-11T20:47:04.710Z,49.10
2019-03-11T20:49:34.136Z,45.40
2019-03-11T20:52:04.149Z,50.03
2019-03-11T20:54:33.500Z,45.03
2019-03-11T20:57:03.551Z,44.18
2019-03-11T20:59:33.697Z,45.17
2019-03-11T21:02:03.787Z,47.60
2019-03-11T21:04:33.188Z,47.87
2019-03-11T21:07:03.459Z,46.13
2019-03-11T21:09:33.401Z,47.08
2019-03-11T21:12:02.933Z,53.20
2019-03-11T21:14:33.163Z,48.68
2019-03-11T21:17:03.156Z,52.25
2019-03-11T21:19:32.595Z,49.07
2019-03-11T21:22:02.945Z,45.30
2019-03-11T21:24:36.936Z,46.80
2019-03-11T21:27:06.439Z,53.45
2019-03-11T21:29:38.629Z,52.75
2019-03-11T21:32:08.535Z,49.80
2019-03-11T21:34:38.060Z,49.00
2019-03-11T21:37:08.105Z,42.83
2019-03-11T21:39:37.942Z,48.13
2019-03-11T21:42:07.430Z,52.23
2019-03-11T21:44:41.062Z,50.30
2019-03-11T21:47:11.105Z,56.88
2019-03-11T21:49:41.104Z,54.88
2019-03-11T21:52:10.574Z,51.60
2019-03-11T21:54:40.600Z,53.10
2019-03-11T21:57:10.638Z,51.68
2019-03-11T21:59:40.245Z,53.67
2019-03-11T22:02:10.252Z,57.10
2019-03-11T22:04:39.599Z,52.43
2019-03-11T22:07:09.541Z,57.98
2019-03-11T22:09:39.461Z,56.23
2019-03-11T22:12:10.615Z,56.37
2019-03-11T22:14:40.605Z,53.98
2019-03-11T22:17:09.963Z,57.97
2019-03-11T22:19:39.985Z,50.67
2019-03-11T22:22:09.469Z,51.40
2019-03-11T22:24:41.082Z,47.78
2019-03-11T22:27:11.048Z,56.13
2019-03-11T22:29:41.050Z,51.02
2019-03-11T22:32:10.483Z,52.77
2019-03-11T22:34:39.836Z,54.05
2019-03-11T22:37:09.766Z,56.60
2019-03-11T22:39:39.794Z,50.95
2019-03-11T22:42:09.809Z,51.73
2019-03-11T22:44:39.837Z,44.98
2019-03-11T22:47:10.016Z,50.48
2019-03-11T22:49:40.064Z,43.02
2019-03-11T22:52:10.039Z,47.67
2019-03-11T22:54:39.984Z,48.00
2019-03-11T22:57:09.909Z,40.08
2019-03-11T22:59:39.960Z,35.75
2019-03-11T23:02:11.973Z,44.85
2019-03-11T23:04:41.420Z,40.40
2019-03-11T23:07:11.372Z,42.05
2019-03-11T23:09:41.331Z,41.10
2019-03-11T23:12:11.331Z,37.67
2019-03-11T23:14:41.248Z,34.75
2019-03-11T23:17:11.213Z,38.28
2019-03-11T23:19:41.200Z,34.45
2019-03-11T23:22:11.235Z,31.40
2019-03-11T23:24:40.611Z,33.07
2019-03-11T23:27:10.617Z,34.25
2019-03-11T23:29:40.595Z,31.70
2019-03-11T23:32:10.648Z,33.38
2019-03-11T23:34:39.999Z,29.07
2019-03-11T23:37:09.476Z,24.97
2019-03-11T23:39:39.398Z,26.50
2019-03-11T23:42:09.447Z,25.50
2019-03-11T23:44:39.429Z,22.13
2019-03-11T23:47:09.419Z,23.40
2019-03-11T23:49:39.523Z,23.75
2019-03-11T23:52:08.966Z,20.87
2019-03-11T23:54:38.346Z,24.23
2019-03-11T23:57:08.272Z,22.75
2019-03-11T23:59:37.660Z,22.40
